Terminal Aerodrome Forecast
Issued by NWS

Home | Current Version | Previous Version | Text Only | Print | Product List | Glossary On
Versions: 1 2 3 4 5 6 7 8 9 10 11 12 13
000
FTUS45 KTFX 161100
TAFBZN
TAF
KBZN 161122Z 1612/1712 VRB06KT P6SM SCT180
     FM161800 VRB06KT P6SM BKN150
     FM162100 VRB06KT P6SM VCSH SCT100 BKN150=

USA.gov is the U.S. government's official web portal to all federal, state and local government web resources and services.